Time,TemperatureF,DewpointF,PressureIn,WindDirection,WindDirectionDegrees,WindSpeedMPH,WindSpeedGustMPH,Humidity,HourlyPrecipIn,Conditions,Clouds,dailyrainin,SoftwareType,DateUTC
2013-03-03 00:03:00,16.2,10.3,29.99,SE,136,0.0,0.0,77,0.00,OVC,SKC,0.00,WeatherDisplay:10.37,2013-03-03 06:03:00,
2013-03-03 00:08:00,16.4,10.2,29.99,SE,136,0.0,0.0,76,0.00,OVC,SKC,0.00,WeatherDisplay:10.37,2013-03-03 06:08:00,
2013-03-03 00:13:00,16.6,10.3,29.99,SE,136,0.0,0.0,76,0.00,OVC,SKC,0.00,WeatherDisplay:10.37,2013-03-03 06:13:00,
2013-03-03 00:18:00,16.6,10.3,29.99,SE,136,0.0,0.0,76,0.00,OVC,SKC,0.00,WeatherDisplay:10.37,2013-03-03 06:18:00,
2013-03-03 00:23:00,16.7,10.7,29.99,SE,136,0.0,0.0,77,0.00,OVC,SKC,0.00,WeatherDisplay:10.37,2013-03-03 06:23:00,
2013-03-03 00:28:00,16.8,10.5,29.98,SE,136,0.0,0.0,76,0.00,OVC,SKC,0.00,WeatherDisplay:10.37,2013-03-03 06:28:00,
2013-03-03 00:33:00,16.9,10.6,29.98,SE,136,0.0,0.0,76,0.00,OVC,SKC,0.00,WeatherDisplay:10.37,2013-03-03 06:33:00,
2013-03-03 00:38:00,17.1,10.8,29.97,SE,136,0.0,0.0,76,0.00,OVC,SKC,0.00,WeatherDisplay:10.37,2013-03-03 06:38:00,
2013-03-03 00:43:00,17.2,11.2,29.97,SE,136,1.1,2.3,77,0.00,OVC,SKC,0.00,WeatherDisplay:10.37,2013-03-03 06:43:00,
2013-03-03 00:48:00,17.2,11.2,29.97,SE,136,0.4,2.3,77,0.00,OVC,SKC,0.00,WeatherDisplay:10.37,2013-03-03 06:48:00,
2013-03-03 00:53:00,17.2,10.9,29.97,SE,136,0.0,0.0,76,0.00,OVC,SKC,0.00,WeatherDisplay:10.37,2013-03-03 06:53:00,
2013-03-03 00:58:00,17.1,10.8,29.97,SE,136,0.0,0.0,76,0.00,OVC,SKC,0.00,WeatherDisplay:10.37,2013-03-03 06:58:00,
2013-03-03 01:03:00,17.1,10.8,29.97,SE,136,0.0,0.0,76,0.00,OVC,SKC,0.00,WeatherDisplay:10.37,2013-03-03 07:03:00,
2013-03-03 01:08:00,17.1,10.8,29.97,SE,136,0.0,0.0,76,0.00,OVC,SKC,0.00,WeatherDisplay:10.37,2013-03-03 07:08:00,
2013-03-03 01:13:00,17.0,10.7,29.97,SE,136,0.0,0.0,76,0.00,OVC,SKC,0.00,WeatherDisplay:10.37,2013-03-03 07:13:00,
2013-03-03 01:18:00,16.8,10.5,29.96,SE,136,2.3,3.5,76,0.00,OVC,SKC,0.00,WeatherDisplay:10.37,2013-03-03 07:18:00,
2013-03-03 01:23:00,16.5,10.5,29.96,SE,136,1.5,3.5,77,0.00,SCT,SKC,0.00,WeatherDisplay:10.37,2013-03-03 07:23:00,
2013-03-03 01:28:00,16.2,10.3,29.96,SE,136,0.0,0.0,77,0.00,SCT,SKC,0.00,WeatherDisplay:10.37,2013-03-03 07:28:00,
2013-03-03 01:33:00,15.9,9.7,29.97,SE,136,0.0,1.1,76,0.00,SCT,SKC,0.00,WeatherDisplay:10.37,2013-03-03 07:33:00,
2013-03-03 01:38:00,15.9,10.0,29.96,SE,136,0.0,0.0,77,0.00,SCT,SKC,0.00,WeatherDisplay:10.37,2013-03-03 07:38:00,
2013-03-03 01:43:00,16.1,10.2,29.96,SE,136,0.7,2.0,77,0.00,SCT,SKC,0.00,WeatherDisplay:10.37,2013-03-03 07:43:00,
2013-03-03 01:48:00,16.3,10.4,29.96,SE,136,2.6,3.5,77,0.00,SCT,SKC,0.00,WeatherDisplay:10.37,2013-03-03 07:48:00,
2013-03-03 01:53:00,16.5,10.5,29.95,SE,136,2.9,3.5,77,0.00,SCT,SKC,0.00,WeatherDisplay:10.37,2013-03-03 07:53:00,
2013-03-03 01:58:00,16.7,10.7,29.95,SE,136,1.6,3.5,77,0.00,SCT,SKC,0.00,WeatherDisplay:10.37,2013-03-03 07:58:00,
2013-03-03 02:03:00,16.8,10.8,29.95,SE,136,0.0,0.0,77,0.00,BKN,SKC,0.00,WeatherDisplay:10.37,2013-03-03 08:03:00,
2013-03-03 02:08:00,16.8,10.8,29.95,SE,136,0.0,0.0,77,0.00,BKN,SKC,0.00,WeatherDisplay:10.37,2013-03-03 08:08:00,
2013-03-03 02:13:00,16.9,10.9,29.95,SE,136,0.0,0.0,77,0.00,BKN,SKC,0.00,WeatherDisplay:10.37,2013-03-03 08:13:00,
2013-03-03 02:18:00,16.9,10.9,29.95,SE,136,0.0,0.0,77,0.00,BKN,SKC,0.00,WeatherDisplay:10.37,2013-03-03 08:18:00,
2013-03-03 02:23:00,17.1,11.1,29.95,SE,136,0.0,0.0,77,0.00,OVC,SKC,0.00,WeatherDisplay:10.37,2013-03-03 08:23:00,
2013-03-03 02:28:00,17.2,11.2,29.94,SE,136,0.0,0.0,77,0.00,OVC,SKC,0.00,WeatherDisplay:10.37,2013-03-03 08:28:00,
2013-03-03 02:33:00,17.4,11.4,29.94,SE,136,0.0,0.0,77,0.00,OVC,SKC,0.00,WeatherDisplay:10.37,2013-03-03 08:33:00,
2013-03-03 02:38:00,17.6,11.6,29.94,SE,136,1.1,2.3,77,0.00,OVC,SKC,0.00,WeatherDisplay:10.37,2013-03-03 08:38:00,
2013-03-03 02:43:00,17.8,11.8,29.94,SE,136,2.4,3.5,77,0.00,OVC,SKC,0.00,WeatherDisplay:10.37,2013-03-03 08:43:00,
2013-03-03 02:48:00,18.1,12.1,29.94,SE,136,2.1,3.5,77,0.00,OVC,SKC,0.00,WeatherDisplay:10.37,2013-03-03 08:48:00,
2013-03-03 02:53:00,18.3,12.0,29.93,SE,136,2.5,3.5,76,0.00,OVC,SKC,0.00,WeatherDisplay:10.37,2013-03-03 08:53:00,
2013-03-03 02:58:00,18.6,12.3,29.93,SE,136,4.2,5.0,76,0.00,OVC,SKC,0.00,WeatherDisplay:10.37,2013-03-03 08:58:00,
2013-03-03 03:03:00,18.9,12.9,29.93,SE,136,3.7,4.6,77,0.00,OVC,SKC,0.00,WeatherDisplay:10.37,2013-03-03 09:03:00,
2013-03-03 03:08:00,19.1,12.8,29.93,SE,136,3.0,4.0,76,0.00,OVC,SKC,0.00,WeatherDisplay:10.37,2013-03-03 09:08:00,
2013-03-03 03:13:00,19.1,12.8,29.93,SE,136,2.6,4.0,76,0.00,OVC,SKC,0.00,WeatherDisplay:10.37,2013-03-03 09:13:00,
2013-03-03 03:18:00,19.2,12.9,29.93,SE,136,0.9,3.5,76,0.00,OVC,SKC,0.00,WeatherDisplay:10.37,2013-03-03 09:18:00,
2013-03-03 03:23:00,19.3,13.0,29.92,SE,136,3.0,4.0,76,0.00,OVC,SKC,0.00,WeatherDisplay:10.37,2013-03-03 09:23:00,
2013-03-03 03:28:00,19.3,13.0,29.93,SE,137,2.6,4.0,76,0.00,OVC,SKC,0.00,WeatherDisplay:10.37,2013-03-03 09:28:00,
2013-03-03 03:33:00,19.4,13.1,29.93,SE,137,1.7,2.3,76,0.00,OVC,SKC,0.00,WeatherDisplay:10.37,2013-03-03 09:33:00,
2013-03-03 03:38:00,19.6,13.3,29.93,SE,137,2.8,4.0,76,0.00,OVC,SKC,0.00,WeatherDisplay:10.37,2013-03-03 09:38:00,
2013-03-03 03:43:00,19.7,13.4,29.92,SE,138,3.6,5.0,76,0.00,OVC,SKC,0.00,WeatherDisplay:10.37,2013-03-03 09:43:00,
2013-03-03 03:48:00,19.8,13.5,29.93,SE,138,3.3,5.0,76,0.00,OVC,SKC,0.00,WeatherDisplay:10.37,2013-03-03 09:48:00,
2013-03-03 03:53:00,19.9,13.6,29.92,SE,138,3.2,4.0,76,0.00,OVC,SKC,0.00,WeatherDisplay:10.37,2013-03-03 09:53:00,
2013-03-03 03:58:00,20.0,13.6,29.92,SE,138,3.5,4.0,76,0.00,OVC,SKC,0.00,WeatherDisplay:10.37,2013-03-03 09:58:00,
2013-03-03 04:03:00,20.0,13.6,29.92,SE,138,3.2,4.0,76,0.00,OVC,SKC,0.00,WeatherDisplay:10.37,2013-03-03 10:03:00,
2013-03-03 04:08:00,20.1,13.7,29.92,SE,138,1.6,3.5,76,0.00,OVC,SKC,0.00,WeatherDisplay:10.37,2013-03-03 10:08:00,
2013-03-03 04:13:00,20.1,13.7,29.93,ENE,62,5.2,8.1,76,0.00,OVC,SKC,0.00,WeatherDisplay:10.37,2013-03-03 10:13:00,
2013-03-03 04:18:00,20.0,13.6,29.93,NE,46,1.3,3.5,76,0.00,OVC,SKC,0.00,WeatherDisplay:10.37,2013-03-03 10:18:00,
2013-03-03 04:23:00,19.9,13.6,29.93,NE,46,2.7,5.0,76,0.00,OVC,SKC,0.00,WeatherDisplay:10.37,2013-03-03 10:23:00,
2013-03-03 04:28:00,19.7,13.4,29.93,East,90,4.2,5.8,76,0.00,OVC,SKC,0.00,WeatherDisplay:10.37,2013-03-03 10:28:00,
2013-03-03 04:33:00,19.5,13.2,29.92,East,96,4.6,6.0,76,0.00,OVC,SKC,0.00,WeatherDisplay:10.37,2013-03-03 10:33:00,
2013-03-03 04:38:00,19.4,13.1,29.92,East,98,3.3,6.0,76,0.00,OVC,SKC,0.00,WeatherDisplay:10.37,2013-03-03 10:38:00,
2013-03-03 04:43:00,19.2,12.9,29.92,ESE,103,4.1,6.0,76,0.00,OVC,SKC,0.00,WeatherDisplay:10.37,2013-03-03 10:43:00,
2013-03-03 04:48:00,19.1,12.8,29.92,SE,126,5.9,8.0,76,0.00,OVC,SKC,0.00,WeatherDisplay:10.37,2013-03-03 10:48:00,
2013-03-03 04:53:00,19.2,12.9,29.92,SSE,149,6.7,8.1,76,0.00,OVC,SKC,0.00,WeatherDisplay:10.37,2013-03-03 10:53:00,
2013-03-03 04:58:00,19.3,13.0,29.92,SSE,153,6.3,9.2,76,0.00,OVC,SKC,0.00,WeatherDisplay:10.37,2013-03-03 10:58:00,
2013-03-03 05:03:00,19.3,13.0,29.92,SSE,155,5.7,7.0,76,0.00,BKN,SKC,0.00,WeatherDisplay:10.37,2013-03-03 11:03:00,
2013-03-03 05:08:00,19.4,13.1,29.92,SSE,161,7.4,9.2,76,0.00,BKN,SKC,0.00,WeatherDisplay:10.37,2013-03-03 11:08:00,
2013-03-03 05:13:00,19.6,13.3,29.92,SSE,164,6.0,7.0,76,0.00,BKN,SKC,0.00,WeatherDisplay:10.37,2013-03-03 11:13:00,
2013-03-03 05:18:00,19.7,13.4,29.92,SSE,164,5.4,7.0,76,0.00,BKN,SKC,0.00,WeatherDisplay:10.37,2013-03-03 11:18:00,
2013-03-03 05:23:00,19.8,13.5,29.92,SSE,164,4.7,6.9,76,0.00,OVC,SKC,0.00,WeatherDisplay:10.37,2013-03-03 11:23:00,
2013-03-03 05:28:00,19.8,13.5,29.92,SSE,164,5.6,7.0,76,0.00,OVC,SKC,0.00,WeatherDisplay:10.37,2013-03-03 11:28:00,
2013-03-03 05:33:00,19.7,13.4,29.92,SSE,164,5.4,7.0,76,0.00,OVC,SKC,0.00,WeatherDisplay:10.37,2013-03-03 11:33:00,
2013-03-03 05:38:00,19.6,13.3,29.92,SSE,164,3.5,5.8,76,0.00,OVC,SKC,0.00,WeatherDisplay:10.37,2013-03-03 11:38:00,
2013-03-03 05:43:00,19.5,13.2,29.92,SSE,164,2.3,3.5,76,0.00,OVC,SKC,0.00,WeatherDisplay:10.37,2013-03-03 11:43:00,
2013-03-03 05:48:00,19.2,12.9,29.92,SSE,163,5.7,7.0,76,0.00,OVC,SKC,0.00,WeatherDisplay:10.37,2013-03-03 11:48:00,
2013-03-03 05:53:00,19.2,12.9,29.92,SSE,161,4.6,8.1,76,0.00,OVC,SKC,0.00,WeatherDisplay:10.37,2013-03-03 11:53:00,
2013-03-03 05:58:00,19.2,12.9,29.92,SSE,161,5.1,6.0,76,0.00,OVC,SKC,0.00,WeatherDisplay:10.37,2013-03-03 11:58:00,
2013-03-03 06:03:00,19.1,12.8,29.92,SSE,161,4.4,6.0,76,0.00,OVC,SKC,0.00,WeatherDisplay:10.37,2013-03-03 12:03:00,
2013-03-03 06:08:00,19.0,12.7,29.92,SSE,161,4.4,6.0,76,0.00,OVC,SKC,0.00,WeatherDisplay:10.37,2013-03-03 12:08:00,
2013-03-03 06:13:00,18.8,12.5,29.92,SSE,161,4.0,5.0,76,0.00,OVC,SKC,0.00,WeatherDisplay:10.37,2013-03-03 12:13:00,
2013-03-03 06:19:00,18.8,12.5,29.92,SSE,160,3.2,4.0,76,0.00,OVC,SKC,0.00,WeatherDisplay:10.37,2013-03-03 12:19:00,
2013-03-03 06:24:00,18.7,12.4,29.92,SSE,160,4.4,6.0,76,0.00,OVC,SKC,0.00,WeatherDisplay:10.37,2013-03-03 12:24:00,
2013-03-03 06:29:00,18.8,12.5,29.92,SSE,160,3.8,4.6,76,0.00,OVC,SKC,0.00,WeatherDisplay:10.37,2013-03-03 12:29:00,
2013-03-03 06:34:00,18.9,12.6,29.92,SSE,160,4.9,6.0,76,0.00,OVC,SKC,0.00,WeatherDisplay:10.37,2013-03-03 12:34:00,
2013-03-03 06:39:00,18.9,12.6,29.91,SSE,160,5.1,6.9,76,0.00,OVC,SKC,0.00,WeatherDisplay:10.37,2013-03-03 12:39:00,
2013-03-03 06:44:00,19.0,12.7,29.91,SSE,159,6.7,8.1,76,0.00,SCT,SKC,0.00,WeatherDisplay:10.37,2013-03-03 12:44:00,
2013-03-03 06:50:00,19.1,12.8,29.91,SSE,159,5.9,8.1,76,0.00,SCT,SKC,0.00,WeatherDisplay:10.37,2013-03-03 12:50:00,
2013-03-03 06:55:00,19.1,12.8,29.91,SSE,158,4.3,8.1,76,0.00,SCT,SKC,0.00,WeatherDisplay:10.37,2013-03-03 12:55:00,
2013-03-03 07:00:00,19.0,12.7,29.91,SSE,158,3.7,5.0,76,0.00,SCT,SKC,0.00,WeatherDisplay:10.37,2013-03-03 13:00:00,
2013-03-03 07:05:00,19.1,12.8,29.91,SSE,157,5.5,7.0,76,0.00,CLR,SKC,0.00,WeatherDisplay:10.37,2013-03-03 13:05:00,
2013-03-03 07:10:00,19.3,13.0,29.91,SSE,157,6.1,8.1,76,0.00,CLR,SKC,0.00,WeatherDisplay:10.37,2013-03-03 13:10:00,
2013-03-03 07:15:00,19.3,13.0,29.91,SSE,155,5.7,8.1,76,0.00,CLR,SKC,0.00,WeatherDisplay:10.37,2013-03-03 13:15:00,
2013-03-03 07:20:00,19.3,13.0,29.91,SSE,150,6.2,9.2,76,0.00,CLR,SKC,0.00,WeatherDisplay:10.37,2013-03-03 13:20:00,
2013-03-03 07:25:00,19.4,13.1,29.91,SE,146,6.0,8.1,76,0.00,CLR,SKC,0.00,WeatherDisplay:10.37,2013-03-03 13:25:00,
2013-03-03 07:30:00,19.5,13.2,29.91,SE,146,4.7,6.9,76,0.00,CLR,SKC,0.00,WeatherDisplay:10.37,2013-03-03 13:30:00,
2013-03-03 07:35:00,19.7,13.4,29.91,SE,146,5.3,6.9,76,0.00,CLR,SKC,0.00,WeatherDisplay:10.37,2013-03-03 13:35:00,
2013-03-03 07:40:00,19.7,13.4,29.91,SE,146,5.7,7.0,76,0.00,CLR,SKC,0.00,WeatherDisplay:10.37,2013-03-03 13:40:00,
2013-03-03 07:45:00,19.8,13.5,29.91,SE,145,5.9,8.1,76,0.00,CLR,SKC,0.00,WeatherDisplay:10.37,2013-03-03 13:45:00,
2013-03-03 07:50:00,19.9,13.6,29.91,SE,142,6.1,9.0,76,0.00,CLR,SKC,0.00,WeatherDisplay:10.37,2013-03-03 13:50:00,
2013-03-03 07:55:00,20.1,14.0,29.91,SE,141,6.3,8.1,77,0.00,CLR,SKC,0.00,WeatherDisplay:10.37,2013-03-03 13:55:00,
2013-03-03 08:00:00,20.3,14.2,29.91,SE,141,7.1,9.2,77,0.00,CLR,SKC,0.00,WeatherDisplay:10.37,2013-03-03 14:00:00,
2013-03-03 08:05:00,20.4,14.3,29.91,SSE,148,6.0,9.2,77,0.00,CLR,SKC,0.00,WeatherDisplay:10.37,2013-03-03 14:05:00,
2013-03-03 08:10:00,20.7,14.6,29.91,SE,140,5.4,8.1,77,0.00,CLR,SKC,0.00,WeatherDisplay:10.37,2013-03-03 14:10:00,
2013-03-03 08:15:00,20.9,14.5,29.91,SE,139,4.3,6.9,76,0.00,CLR,SKC,0.00,WeatherDisplay:10.37,2013-03-03 14:15:00,
2013-03-03 08:20:00,21.2,14.8,29.91,SE,138,4.8,6.9,76,0.00,CLR,SKC,0.00,WeatherDisplay:10.37,2013-03-03 14:20:00,
2013-03-03 08:25:00,21.5,15.1,29.90,SE,141,5.9,8.1,76,0.00,CLR,SKC,0.00,WeatherDisplay:10.37,2013-03-03 14:25:00,
2013-03-03 08:30:00,21.7,15.6,29.90,SE,139,7.5,10.4,77,0.00,CLR,SKC,0.00,WeatherDisplay:10.37,2013-03-03 14:30:00,
2013-03-03 08:35:00,21.9,15.5,29.90,SE,136,7.7,10.4,76,0.00,CLR,SKC,0.00,WeatherDisplay:10.37,2013-03-03 14:35:00,
2013-03-03 08:40:00,22.3,15.9,29.90,SE,140,8.2,10.4,76,0.00,CLR,SKC,0.00,WeatherDisplay:10.37,2013-03-03 14:40:00,
2013-03-03 08:45:00,22.5,16.1,29.90,SE,139,6.4,10.4,76,0.00,SCT,SKC,0.00,WeatherDisplay:10.37,2013-03-03 14:45:00,
2013-03-03 08:50:00,22.7,16.3,29.90,SE,129,8.0,10.0,76,0.00,SCT,SKC,0.00,WeatherDisplay:10.37,2013-03-03 14:50:00,
2013-03-03 08:55:00,22.9,16.5,29.90,SE,139,7.6,10.4,76,0.00,SCT,SKC,0.00,WeatherDisplay:10.37,2013-03-03 14:55:00,
2013-03-03 09:00:00,23.0,16.6,29.90,ESE,121,8.4,10.4,76,0.00,SCT,SKC,0.00,WeatherDisplay:10.37,2013-03-03 15:00:00,
2013-03-03 09:05:00,23.0,16.6,29.90,SE,125,7.6,11.5,76,0.00,CLR,SKC,0.00,WeatherDisplay:10.37,2013-03-03 15:05:00,
2013-03-03 09:10:00,23.1,16.7,29.90,ESE,122,9.9,12.0,76,0.00,CLR,SKC,0.00,WeatherDisplay:10.37,2013-03-03 15:10:00,
2013-03-03 09:15:00,23.2,16.8,29.90,SE,129,8.7,11.5,76,0.00,CLR,SKC,0.00,WeatherDisplay:10.37,2013-03-03 15:15:00,
2013-03-03 09:20:00,23.5,17.0,29.90,SE,130,7.5,11.5,76,0.00,CLR,SKC,0.00,WeatherDisplay:10.37,2013-03-03 15:20:00,
2013-03-03 09:25:00,23.8,17.3,29.89,SE,128,7.2,11.5,76,0.00,BKN,SKC,0.00,WeatherDisplay:10.37,2013-03-03 15:25:00,
2013-03-03 09:30:00,24.0,17.5,29.89,ESE,123,9.4,12.0,76,0.00,BKN,SKC,0.00,WeatherDisplay:10.37,2013-03-03 15:30:00,
2013-03-03 09:35:00,24.2,17.7,29.89,SE,129,9.0,12.0,76,0.00,BKN,SKC,0.00,WeatherDisplay:10.37,2013-03-03 15:35:00,
2013-03-03 09:40:00,24.3,17.8,29.89,SE,137,8.8,11.5,76,0.00,BKN,SKC,0.00,WeatherDisplay:10.37,2013-03-03 15:40:00,
2013-03-03 09:45:00,24.4,17.9,29.89,SE,140,8.9,12.7,76,0.00,OVC,SKC,0.00,WeatherDisplay:10.37,2013-03-03 15:45:00,
2013-03-03 09:50:00,24.6,18.1,29.88,ESE,109,9.1,12.0,76,0.00,OVC,SKC,0.00,WeatherDisplay:10.37,2013-03-03 15:50:00,
2013-03-03 09:55:00,24.8,18.3,29.88,SE,142,8.7,11.5,76,0.00,OVC,SKC,0.00,WeatherDisplay:10.37,2013-03-03 15:55:00,
2013-03-03 10:00:00,25.2,18.7,29.88,SE,133,7.3,10.4,76,0.00,OVC,SKC,0.00,WeatherDisplay:10.37,2013-03-03 16:00:00,
2013-03-03 10:05:00,25.5,19.0,29.88,SE,133,9.9,12.0,76,0.00,OVC,SKC,0.00,WeatherDisplay:10.37,2013-03-03 16:05:00,
2013-03-03 10:10:00,25.5,18.7,29.88,SSE,148,10.2,15.0,75,0.00,OVC,SKC,0.00,WeatherDisplay:10.37,2013-03-03 16:10:00,
2013-03-03 10:15:00,25.6,18.8,29.88,SSE,148,11.7,14.0,75,0.00,OVC,SKC,0.00,WeatherDisplay:10.37,2013-03-03 16:15:00,
2013-03-03 10:20:00,25.6,18.8,29.89,SSE,150,10.5,13.0,75,0.00,OVC,SKC,0.00,WeatherDisplay:10.37,2013-03-03 16:20:00,
2013-03-03 10:25:00,25.7,18.6,29.88,SE,145,10.1,13.8,74,0.00,BKN,SKC,0.00,WeatherDisplay:10.37,2013-03-03 16:25:00,
2013-03-03 10:30:00,26.1,18.9,29.88,SE,133,10.4,13.8,74,0.00,BKN,SKC,0.00,WeatherDisplay:10.37,2013-03-03 16:30:00,
2013-03-03 10:35:00,26.1,18.9,29.88,SSE,151,9.2,13.8,74,0.00,BKN,SKC,0.00,WeatherDisplay:10.37,2013-03-03 16:35:00,
2013-03-03 10:40:00,26.3,18.8,29.88,SE,141,10.4,12.7,73,0.00,BKN,SKC,0.00,WeatherDisplay:10.37,2013-03-03 16:40:00,
2013-03-03 10:45:00,26.6,19.4,29.88,ESE,116,9.8,12.0,74,0.00,SCT,SKC,0.00,WeatherDisplay:10.37,2013-03-03 16:45:00,
2013-03-03 10:50:00,26.9,19.4,29.88,SE,131,9.3,12.7,73,0.00,SCT,SKC,0.00,WeatherDisplay:10.37,2013-03-03 16:50:00,
2013-03-03 10:55:00,27.1,19.6,29.88,SE,144,10.8,12.0,73,0.00,SCT,SKC,0.00,WeatherDisplay:10.37,2013-03-03 16:55:00,
2013-03-03 11:00:00,27.3,19.8,29.88,SE,146,10.9,14.0,73,0.00,SCT,SKC,0.00,WeatherDisplay:10.37,2013-03-03 17:00:00,
2013-03-03 11:05:00,27.3,19.8,29.88,SSE,151,9.7,12.7,73,0.00,CLR,SKC,0.00,WeatherDisplay:10.37,2013-03-03 17:05:00,
2013-03-03 11:10:00,27.4,19.2,29.88,SE,137,11.8,15.0,71,0.00,CLR,SKC,0.00,WeatherDisplay:10.37,2013-03-03 17:10:00,
2013-03-03 11:15:00,27.5,19.0,29.88,SE,144,11.0,15.0,70,0.00,CLR,SKC,0.00,WeatherDisplay:10.37,2013-03-03 17:15:00,
2013-03-03 11:20:00,27.8,18.9,29.88,SE,132,9.9,14.0,69,0.00,CLR,SKC,0.00,WeatherDisplay:10.37,2013-03-03 17:20:00,
2013-03-03 11:25:00,27.8,17.9,29.87,SE,143,12.5,15.0,66,0.00,CLR,SKC,0.00,WeatherDisplay:10.37,2013-03-03 17:25:00,
2013-03-03 11:30:00,27.8,16.8,29.87,SE,130,10.2,13.8,63,0.00,CLR,SKC,0.00,WeatherDisplay:10.37,2013-03-03 17:30:00,
2013-03-03 11:35:00,27.9,17.3,29.87,SE,141,11.2,15.0,64,0.00,CLR,SKC,0.00,WeatherDisplay:10.37,2013-03-03 17:35:00,
2013-03-03 11:40:00,28.2,18.3,29.87,SSE,151,12.3,16.0,66,0.00,CLR,SKC,0.00,WeatherDisplay:10.37,2013-03-03 17:40:00,
2013-03-03 11:45:00,28.1,16.7,29.87,SSE,155,12.4,15.0,62,0.00,CLR,SKC,0.00,WeatherDisplay:10.37,2013-03-03 17:45:00,
2013-03-03 11:50:00,28.2,17.6,29.87,SE,146,12.7,16.1,64,0.00,CLR,SKC,0.00,WeatherDisplay:10.37,2013-03-03 17:50:00,
2013-03-03 11:55:00,28.7,16.2,29.86,SE,145,12.8,16.1,59,0.00,CLR,SKC,0.00,WeatherDisplay:10.37,2013-03-03 17:55:00,
2013-03-03 12:00:00,28.8,16.6,29.87,SE,145,13.4,18.4,60,0.00,CLR,SKC,0.00,WeatherDisplay:10.37,2013-03-03 18:00:00,
2013-03-03 12:05:00,28.8,17.4,29.87,SSE,150,14.9,18.4,62,0.00,CLR,SKC,0.00,WeatherDisplay:10.37,2013-03-03 18:05:00,
2013-03-03 12:10:00,28.9,17.5,29.86,SE,144,14.0,17.3,62,0.00,CLR,SKC,0.00,WeatherDisplay:10.37,2013-03-03 18:10:00,
2013-03-03 12:15:00,29.0,17.2,29.86,SE,139,14.4,16.1,61,0.00,CLR,SKC,0.00,WeatherDisplay:10.37,2013-03-03 18:15:00,
2013-03-03 12:20:00,29.1,17.7,29.86,SSE,147,11.5,17.3,62,0.00,CLR,SKC,0.00,WeatherDisplay:10.37,2013-03-03 18:20:00,
2013-03-03 12:25:00,29.3,17.5,29.86,SE,144,12.5,15.0,61,0.00,CLR,SKC,0.00,WeatherDisplay:10.37,2013-03-03 18:25:00,
2013-03-03 12:30:00,29.3,17.9,29.86,SE,146,10.9,15.0,62,0.00,CLR,SKC,0.00,WeatherDisplay:10.37,2013-03-03 18:30:00,
2013-03-03 12:35:00,29.6,18.5,29.86,SE,131,10.4,14.0,63,0.00,CLR,SKC,0.00,WeatherDisplay:10.37,2013-03-03 18:35:00,
2013-03-03 12:40:00,29.7,19.0,29.86,SE,135,11.6,16.1,64,0.00,CLR,SKC,0.00,WeatherDisplay:10.37,2013-03-03 18:40:00,
2013-03-03 12:45:00,30.0,19.3,29.86,SSE,155,8.5,12.7,64,0.00,CLR,SKC,0.00,WeatherDisplay:10.37,2013-03-03 18:45:00,
2013-03-03 12:50:00,30.2,19.1,29.85,SSE,158,9.9,13.8,63,0.00,CLR,SKC,0.00,WeatherDisplay:10.37,2013-03-03 18:50:00,
2013-03-03 12:55:00,30.2,19.1,29.85,SE,144,9.7,13.8,63,0.00,CLR,SKC,0.00,WeatherDisplay:10.37,2013-03-03 18:55:00,
2013-03-03 13:00:00,30.2,18.7,29.85,SSE,160,12.9,16.1,62,0.00,CLR,SKC,0.00,WeatherDisplay:10.37,2013-03-03 19:00:00,
2013-03-03 13:05:00,30.0,18.5,29.84,SSE,154,13.4,16.1,62,0.00,CLR,SKC,0.00,WeatherDisplay:10.37,2013-03-03 19:05:00,
2013-03-03 13:10:00,29.8,18.0,29.84,SE,146,14.4,17.3,61,0.00,CLR,SKC,0.00,WeatherDisplay:10.37,2013-03-03 19:10:00,
2013-03-03 13:15:00,30.0,18.2,29.84,SSE,150,11.7,15.0,61,0.00,CLR,SKC,0.00,WeatherDisplay:10.37,2013-03-03 19:15:00,
2013-03-03 13:20:00,30.0,18.2,29.83,SE,146,14.4,17.0,61,0.00,CLR,SKC,0.00,WeatherDisplay:10.37,2013-03-03 19:20:00,
2013-03-03 13:25:00,30.2,18.7,29.83,SE,139,11.4,15.0,62,0.00,CLR,SKC,0.00,WeatherDisplay:10.37,2013-03-03 19:25:00,
2013-03-03 13:30:00,30.3,19.6,29.83,SE,144,9.6,13.8,64,0.00,CLR,SKC,0.00,WeatherDisplay:10.37,2013-03-03 19:30:00,
2013-03-03 13:35:00,30.5,19.4,29.83,SE,146,11.7,15.0,63,0.00,CLR,SKC,0.00,WeatherDisplay:10.37,2013-03-03 19:35:00,
2013-03-03 13:40:00,30.6,19.5,29.82,SE,130,10.1,12.7,63,0.00,CLR,SKC,0.00,WeatherDisplay:10.37,2013-03-03 19:40:00,
2013-03-03 13:45:00,30.6,19.1,29.82,SSE,150,10.5,13.8,62,0.00,CLR,SKC,0.00,WeatherDisplay:10.37,2013-03-03 19:45:00,
2013-03-03 13:50:00,30.6,19.5,29.82,SE,141,9.2,13.8,63,0.00,CLR,SKC,0.00,WeatherDisplay:10.37,2013-03-03 19:50:00,
2013-03-03 13:55:00,30.8,19.7,29.82,SE,138,9.6,13.8,63,0.00,CLR,SKC,0.00,WeatherDisplay:10.37,2013-03-03 19:55:00,
2013-03-03 14:00:00,30.8,19.3,29.81,SE,140,11.6,16.1,62,0.00,CLR,SKC,0.00,WeatherDisplay:10.37,2013-03-03 20:00:00,
2013-03-03 14:05:00,30.4,19.3,29.81,SE,143,10.7,13.8,63,0.00,CLR,SKC,0.00,WeatherDisplay:10.37,2013-03-03 20:05:00,
2013-03-03 14:10:00,30.4,19.7,29.81,SSE,147,10.6,14.0,64,0.00,CLR,SKC,0.00,WeatherDisplay:10.37,2013-03-03 20:10:00,
2013-03-03 14:15:00,30.4,20.0,29.81,SE,129,11.0,14.0,65,0.00,CLR,SKC,0.00,WeatherDisplay:10.37,2013-03-03 20:15:00,
2013-03-03 14:21:00,30.3,19.9,29.81,SE,132,10.0,15.0,65,0.00,CLR,SKC,0.00,WeatherDisplay:10.37,2013-03-03 20:21:00,
2013-03-03 14:26:00,30.4,19.7,29.81,SE,132,11.9,15.0,64,0.00,CLR,SKC,0.00,WeatherDisplay:10.37,2013-03-03 20:26:00,
2013-03-03 14:31:00,30.3,19.9,29.81,SSE,147,9.7,13.0,65,0.00,CLR,SKC,0.00,WeatherDisplay:10.37,2013-03-03 20:31:00,
2013-03-03 14:36:00,30.3,19.9,29.81,SE,141,8.9,11.5,65,0.00,CLR,SKC,0.00,WeatherDisplay:10.37,2013-03-03 20:36:00,
2013-03-03 14:41:00,30.3,20.3,29.81,SSE,159,9.2,15.0,66,0.00,CLR,SKC,0.00,WeatherDisplay:10.37,2013-03-03 20:41:00,
2013-03-03 14:46:00,30.4,21.1,29.81,SSE,157,9.6,12.0,68,0.00,CLR,SKC,0.00,WeatherDisplay:10.37,2013-03-03 20:46:00,
2013-03-03 14:51:00,30.3,20.6,29.81,SE,142,11.8,13.8,67,0.00,CLR,SKC,0.00,WeatherDisplay:10.37,2013-03-03 20:51:00,
2013-03-03 14:56:00,30.2,20.6,29.81,SE,138,10.2,13.0,67,0.00,CLR,SKC,0.00,WeatherDisplay:10.37,2013-03-03 20:56:00,
2013-03-03 15:01:00,30.2,20.2,29.81,SE,144,9.2,12.7,66,0.00,CLR,SKC,0.00,WeatherDisplay:10.37,2013-03-03 21:01:00,
2013-03-03 15:06:00,30.1,20.1,29.81,SE,146,9.9,12.7,66,0.00,CLR,SKC,0.00,WeatherDisplay:10.37,2013-03-03 21:06:00,
2013-03-03 15:11:00,30.0,20.0,29.80,SE,141,11.1,15.0,66,0.00,CLR,SKC,0.00,WeatherDisplay:10.37,2013-03-03 21:11:00,
2013-03-03 15:16:00,29.8,19.1,29.80,SSE,147,13.7,17.3,64,0.00,CLR,SKC,0.00,WeatherDisplay:10.37,2013-03-03 21:16:00,
2013-03-03 15:21:00,29.7,19.7,29.80,SE,146,8.8,13.8,66,0.00,CLR,SKC,0.00,WeatherDisplay:10.37,2013-03-03 21:21:00,
2013-03-03 15:26:00,29.6,19.3,29.80,SE,134,10.6,15.0,65,0.00,CLR,SKC,0.00,WeatherDisplay:10.37,2013-03-03 21:26:00,
2013-03-03 15:31:00,29.6,19.6,29.80,SE,136,10.8,13.8,66,0.00,CLR,SKC,0.00,WeatherDisplay:10.37,2013-03-03 21:31:00,
2013-03-03 15:36:00,29.5,20.2,29.80,SE,140,8.2,11.5,68,0.00,CLR,SKC,0.00,WeatherDisplay:10.37,2013-03-03 21:36:00,
2013-03-03 15:41:00,29.5,20.2,29.80,SE,139,9.5,12.7,68,0.00,CLR,SKC,0.00,WeatherDisplay:10.37,2013-03-03 21:41:00,
2013-03-03 15:46:00,29.5,20.6,29.80,SE,134,9.3,12.7,69,0.00,CLR,SKC,0.00,WeatherDisplay:10.37,2013-03-03 21:46:00,
2013-03-03 15:51:00,29.5,20.6,29.79,SE,130,9.2,12.7,69,0.00,CLR,SKC,0.00,WeatherDisplay:10.37,2013-03-03 21:51:00,
2013-03-03 15:56:00,29.5,20.6,29.79,SE,130,11.1,14.0,69,0.00,CLR,SKC,0.00,WeatherDisplay:10.37,2013-03-03 21:56:00,
2013-03-03 16:02:00,29.4,20.1,29.78,ESE,122,12.3,15.0,68,0.00,CLR,SKC,0.00,WeatherDisplay:10.37,2013-03-03 22:02:00,
2013-03-03 16:07:00,29.1,20.2,29.79,ESE,118,13.0,16.0,69,0.00,CLR,SKC,0.00,WeatherDisplay:10.37,2013-03-03 22:07:00,
2013-03-03 16:12:00,29.0,19.8,29.79,SE,128,12.3,16.0,68,0.00,CLR,SKC,0.00,WeatherDisplay:10.37,2013-03-03 22:12:00,
2013-03-03 16:17:00,28.8,19.6,29.79,ESE,121,12.4,17.3,68,0.00,CLR,SKC,0.00,WeatherDisplay:10.37,2013-03-03 22:17:00,
2013-03-03 16:22:00,28.5,19.3,29.79,ESE,115,13.4,17.3,68,0.00,CLR,SKC,0.00,WeatherDisplay:10.37,2013-03-03 22:22:00,
2013-03-03 16:27:00,28.4,19.2,29.79,SE,133,13.6,17.3,68,0.00,CLR,SKC,0.00,WeatherDisplay:10.37,2013-03-03 22:27:00,
2013-03-03 16:32:00,28.1,18.9,29.79,SE,142,13.7,17.3,68,0.00,CLR,SKC,0.00,WeatherDisplay:10.37,2013-03-03 22:32:00,
2013-03-03 16:37:00,28.1,18.5,29.79,SE,145,11.8,18.4,67,0.00,CLR,SKC,0.00,WeatherDisplay:10.37,2013-03-03 22:37:00,
2013-03-03 16:42:00,27.9,18.7,29.79,SE,124,10.9,16.0,68,0.00,CLR,SKC,0.00,WeatherDisplay:10.37,2013-03-03 22:42:00,
2013-03-03 16:47:00,27.6,18.8,29.79,ESE,117,10.6,13.0,69,0.00,CLR,SKC,0.00,WeatherDisplay:10.37,2013-03-03 22:47:00,
2013-03-03 16:52:00,27.3,18.5,29.79,SE,139,11.4,14.0,69,0.00,CLR,SKC,0.00,WeatherDisplay:10.37,2013-03-03 22:52:00,
2013-03-03 16:57:00,27.2,18.4,29.79,SE,126,10.3,12.7,69,0.00,CLR,SKC,0.00,WeatherDisplay:10.37,2013-03-03 22:57:00,
2013-03-03 17:03:00,27.0,18.2,29.79,SE,138,10.5,15.0,69,0.00,CLR,SKC,0.00,WeatherDisplay:10.37,2013-03-03 23:03:00,
2013-03-03 17:08:00,26.8,18.0,29.79,SE,131,11.0,15.0,69,0.00,CLR,SKC,0.00,WeatherDisplay:10.37,2013-03-03 23:08:00,
2013-03-03 17:13:00,26.4,17.9,29.79,ESE,121,10.7,13.0,70,0.00,CLR,SKC,0.00,WeatherDisplay:10.37,2013-03-03 23:13:00,
2013-03-03 17:18:00,26.0,17.6,29.79,ESE,116,9.9,12.0,70,0.00,CLR,SKC,0.00,WeatherDisplay:10.37,2013-03-03 23:18:00,
2013-03-03 17:23:00,25.5,17.4,29.79,ESE,117,9.4,11.5,71,0.00,CLR,SKC,0.00,WeatherDisplay:10.37,2013-03-03 23:23:00,
2013-03-03 17:28:00,25.0,17.6,29.79,ESE,118,10.4,12.7,73,0.00,CLR,SKC,0.00,WeatherDisplay:10.37,2013-03-03 23:28:00,
2013-03-03 17:33:00,24.7,17.6,29.79,ESE,117,10.8,12.7,74,0.00,CLR,SKC,0.00,WeatherDisplay:10.37,2013-03-03 23:33:00,
2013-03-03 17:38:00,24.3,17.2,29.78,SE,129,10.6,12.7,74,0.00,CLR,SKC,0.00,WeatherDisplay:10.37,2013-03-03 23:38:00,
2013-03-03 17:43:00,24.0,16.9,29.78,ESE,118,9.4,12.0,74,0.00,CLR,SKC,0.00,WeatherDisplay:10.37,2013-03-03 23:43:00,
2013-03-03 17:48:00,23.8,16.7,29.78,ESE,123,9.0,11.5,74,0.00,CLR,SKC,0.00,WeatherDisplay:10.37,2013-03-03 23:48:00,
2013-03-03 17:53:00,23.8,16.7,29.78,ESE,123,10.4,12.0,74,0.00,CLR,SKC,0.00,WeatherDisplay:10.37,2013-03-03 23:53:00,
2013-03-03 17:58:00,23.6,16.5,29.78,ESE,115,9.2,11.5,74,0.00,CLR,SKC,0.00,WeatherDisplay:10.37,2013-03-03 23:58:00,
2013-03-03 18:03:00,23.5,16.4,29.78,ESE,123,9.5,12.7,74,0.00,CLR,SKC,0.00,WeatherDisplay:10.37,2013-03-04 00:03:00,
2013-03-03 18:08:00,23.5,16.4,29.78,ESE,121,9.9,13.8,74,0.00,CLR,SKC,0.00,WeatherDisplay:10.37,2013-03-04 00:08:00,
2013-03-03 18:13:00,23.2,16.1,29.78,ESE,119,9.5,12.7,74,0.00,CLR,SKC,0.00,WeatherDisplay:10.37,2013-03-04 00:13:00,
2013-03-03 18:18:00,23.1,16.0,29.78,SE,126,9.4,12.7,74,0.00,CLR,SKC,0.00,WeatherDisplay:10.37,2013-03-04 00:18:00,
2013-03-03 18:23:00,23.0,15.9,29.78,ESE,119,9.5,11.5,74,0.00,CLR,SKC,0.00,WeatherDisplay:10.37,2013-03-04 00:23:00,
2013-03-03 18:29:00,23.0,15.9,29.78,SE,128,9.1,11.5,74,0.00,CLR,SKC,0.00,WeatherDisplay:10.37,2013-03-04 00:29:00,
2013-03-03 18:34:00,23.3,15.9,29.78,SE,129,8.3,11.5,73,0.00,CLR,SKC,0.00,WeatherDisplay:10.37,2013-03-04 00:34:00,
2013-03-03 18:39:00,23.4,16.0,29.78,SE,133,8.5,12.0,73,0.00,CLR,SKC,0.00,WeatherDisplay:10.37,2013-03-04 00:39:00,
2013-03-03 18:44:00,23.4,15.7,29.78,ESE,123,9.0,12.0,72,0.00,CLR,SKC,0.00,WeatherDisplay:10.37,2013-03-04 00:44:00,
2013-03-03 18:49:00,23.6,15.9,29.78,ESE,121,10.8,14.0,72,0.00,CLR,SKC,0.00,WeatherDisplay:10.37,2013-03-04 00:49:00,
2013-03-03 18:54:00,23.7,16.0,29.78,SE,142,11.1,15.0,72,0.00,CLR,SKC,0.00,WeatherDisplay:10.37,2013-03-04 00:54:00,
2013-03-03 18:59:00,23.8,15.8,29.78,ESE,120,11.3,15.0,71,0.00,CLR,SKC,0.00,WeatherDisplay:10.37,2013-03-04 00:59:00,
2013-03-03 19:04:00,23.9,15.9,29.78,ESE,117,11.2,14.0,71,0.00,CLR,SKC,0.00,WeatherDisplay:10.37,2013-03-04 01:04:00,
2013-03-03 19:09:00,24.1,16.1,29.78,SE,134,10.8,16.1,71,0.00,CLR,SKC,0.00,WeatherDisplay:10.37,2013-03-04 01:09:00,
2013-03-03 19:14:00,24.0,16.3,29.79,SE,128,10.6,13.8,72,0.00,CLR,SKC,0.00,WeatherDisplay:10.37,2013-03-04 01:14:00,
2013-03-03 19:19:00,24.0,16.3,29.79,SE,126,11.9,15.0,72,0.00,CLR,SKC,0.00,WeatherDisplay:10.37,2013-03-04 01:19:00,
2013-03-03 19:24:00,24.1,16.4,29.79,SE,126,11.1,17.3,72,0.00,CLR,SKC,0.00,WeatherDisplay:10.37,2013-03-04 01:24:00,
2013-03-03 19:30:00,24.2,16.8,29.79,SE,139,10.6,15.0,73,0.00,CLR,SKC,0.00,WeatherDisplay:10.37,2013-03-04 01:30:00,
2013-03-03 19:35:00,24.1,17.0,29.79,SE,130,8.7,13.0,74,0.00,CLR,SKC,0.00,WeatherDisplay:10.37,2013-03-04 01:35:00,
2013-03-03 19:40:00,23.9,16.8,29.79,ESE,109,10.4,12.7,74,0.00,CLR,SKC,0.00,WeatherDisplay:10.37,2013-03-04 01:40:00,
2013-03-03 19:45:00,23.8,16.7,29.79,ESE,121,10.4,14.0,74,0.00,CLR,SKC,0.00,WeatherDisplay:10.37,2013-03-04 01:45:00,
2013-03-03 19:50:00,23.7,16.6,29.79,SE,128,10.5,14.0,74,0.00,CLR,SKC,0.00,WeatherDisplay:10.37,2013-03-04 01:50:00,
2013-03-03 19:55:00,23.7,16.9,29.79,SSE,149,9.4,12.0,75,0.00,CLR,SKC,0.00,WeatherDisplay:10.37,2013-03-04 01:55:00,
2013-03-03 20:00:00,24.0,17.2,29.79,SE,128,9.6,12.7,75,0.00,CLR,SKC,0.00,WeatherDisplay:10.37,2013-03-04 02:00:00,
2013-03-03 20:05:00,24.2,17.1,29.79,SE,128,9.4,13.0,74,0.00,CLR,SKC,0.00,WeatherDisplay:10.37,2013-03-04 02:05:00,
2013-03-03 20:10:00,24.3,17.2,29.79,SE,130,11.1,15.0,74,0.00,CLR,SKC,0.00,WeatherDisplay:10.37,2013-03-04 02:10:00,
2013-03-03 20:15:00,24.4,17.3,29.79,SE,132,11.8,15.0,74,0.00,CLR,SKC,0.00,WeatherDisplay:10.37,2013-03-04 02:15:00,
2013-03-03 20:20:00,24.5,17.4,29.79,SE,128,11.8,15.0,74,0.00,CLR,SKC,0.00,WeatherDisplay:10.37,2013-03-04 02:20:00,
2013-03-03 20:25:00,24.5,17.4,29.78,ESE,115,10.8,13.8,74,0.00,SCT,SKC,0.00,WeatherDisplay:10.37,2013-03-04 02:25:00,
2013-03-03 20:30:00,24.4,17.3,29.78,SE,129,12.6,15.0,74,0.00,SCT,SKC,0.00,WeatherDisplay:10.37,2013-03-04 02:30:00,
2013-03-03 20:35:00,24.4,17.3,29.78,SE,127,12.6,16.1,74,0.00,SCT,SKC,0.00,WeatherDisplay:10.37,2013-03-04 02:35:00,
2013-03-03 20:40:00,24.4,17.3,29.78,SE,146,12.6,16.1,74,0.00,SCT,SKC,0.00,WeatherDisplay:10.37,2013-03-04 02:40:00,
2013-03-03 20:45:00,24.4,17.3,29.78,ESE,119,12.9,15.0,74,0.00,BKN,SKC,0.00,WeatherDisplay:10.37,2013-03-04 02:45:00,
2013-03-03 20:50:00,24.4,17.3,29.78,ESE,123,11.4,16.0,74,0.00,BKN,SKC,0.00,WeatherDisplay:10.37,2013-03-04 02:50:00,
2013-03-03 20:55:00,24.3,17.2,29.79,ESE,117,10.7,15.0,74,0.00,BKN,SKC,0.00,WeatherDisplay:10.37,2013-03-04 02:55:00,
2013-03-03 21:00:00,24.2,17.4,29.78,ESE,121,12.0,15.0,75,0.00,BKN,SKC,0.00,WeatherDisplay:10.37,2013-03-04 03:00:00,
2013-03-03 21:05:00,24.0,17.2,29.78,ESE,117,11.9,14.0,75,0.00,SCT,SKC,0.00,WeatherDisplay:10.37,2013-03-04 03:05:00,
2013-03-03 21:10:00,24.0,17.2,29.78,SE,126,10.8,13.8,75,0.00,SCT,SKC,0.00,WeatherDisplay:10.37,2013-03-04 03:10:00,
2013-03-03 21:16:00,24.3,17.2,29.78,SE,136,12.0,15.0,74,0.00,SCT,SKC,0.00,WeatherDisplay:10.37,2013-03-04 03:16:00,
2013-03-03 21:21:00,24.2,17.1,29.78,SE,126,12.0,16.0,74,0.00,SCT,SKC,0.00,WeatherDisplay:10.37,2013-03-04 03:21:00,
2013-03-03 21:27:00,24.5,17.4,29.77,SE,128,12.3,17.3,74,0.00,SCT,SKC,0.00,WeatherDisplay:10.37,2013-03-04 03:27:00,
2013-03-03 21:32:00,24.5,17.1,29.77,SE,136,10.5,13.0,73,0.00,SCT,SKC,0.00,WeatherDisplay:10.37,2013-03-04 03:32:00,
2013-03-03 21:37:00,24.5,17.1,29.77,SE,135,10.6,16.1,73,0.00,SCT,SKC,0.00,WeatherDisplay:10.37,2013-03-04 03:37:00,
2013-03-03 21:43:00,24.5,17.1,29.77,ESE,122,10.7,16.1,73,0.00,BKN,SKC,0.00,WeatherDisplay:10.37,2013-03-04 03:43:00,
2013-03-03 21:48:00,24.7,17.3,29.77,SE,141,11.0,15.0,73,0.00,BKN,SKC,0.00,WeatherDisplay:10.37,2013-03-04 03:48:00,
2013-03-03 21:53:00,24.8,17.4,29.77,ESE,123,11.6,17.3,73,0.00,BKN,SKC,0.00,WeatherDisplay:10.37,2013-03-04 03:53:00,
2013-03-03 21:58:00,24.7,17.3,29.77,SE,132,12.3,18.0,73,0.00,BKN,SKC,0.00,WeatherDisplay:10.37,2013-03-04 03:58:00,
2013-03-03 22:03:00,24.9,17.5,29.77,ESE,121,11.4,17.3,73,0.00,BKN,SKC,0.00,WeatherDisplay:10.37,2013-03-04 04:03:00,
2013-03-03 22:08:00,24.9,17.5,29.77,SE,135,13.8,18.0,73,0.00,BKN,SKC,0.00,WeatherDisplay:10.37,2013-03-04 04:08:00,
2013-03-03 22:13:00,25.0,17.6,29.77,SE,142,14.0,19.6,73,0.00,BKN,SKC,0.00,WeatherDisplay:10.37,2013-03-04 04:13:00,
2013-03-03 22:18:00,25.0,17.6,29.76,ESE,123,12.4,17.3,73,0.00,BKN,SKC,0.00,WeatherDisplay:10.37,2013-03-04 04:18:00,
2013-03-03 22:23:00,25.1,17.7,29.77,SE,125,12.9,18.4,73,0.00,BKN,SKC,0.00,WeatherDisplay:10.37,2013-03-04 04:23:00,
2013-03-03 22:28:00,25.2,17.8,29.77,SSE,149,12.5,17.3,73,0.00,BKN,SKC,0.00,WeatherDisplay:10.37,2013-03-04 04:28:00,
2013-03-03 22:33:00,25.2,17.8,29.76,ESE,121,12.6,16.1,73,0.00,BKN,SKC,0.00,WeatherDisplay:10.37,2013-03-04 04:33:00,
2013-03-03 22:38:00,25.3,17.9,29.76,SE,134,12.0,16.1,73,0.00,BKN,SKC,0.00,WeatherDisplay:10.37,2013-03-04 04:38:00,
2013-03-03 22:43:00,25.3,17.9,29.77,SSE,148,13.3,18.4,73,0.00,BKN,SKC,0.00,WeatherDisplay:10.37,2013-03-04 04:43:00,
2013-03-03 22:48:00,25.5,17.7,29.77,SSE,149,15.9,19.6,72,0.00,BKN,SKC,0.00,WeatherDisplay:10.37,2013-03-04 04:48:00,
2013-03-03 22:53:00,25.6,17.8,29.77,SE,145,14.4,17.3,72,0.00,BKN,SKC,0.00,WeatherDisplay:10.37,2013-03-04 04:53:00,
2013-03-03 22:58:00,25.6,17.8,29.77,SE,138,14.2,19.6,72,0.00,BKN,SKC,0.00,WeatherDisplay:10.37,2013-03-04 04:58:00,
2013-03-03 23:00:00,25.6,17.8,29.77,SE,139,12.6,17.3,72,0.00,BKN,SKC,0.00,WeatherDisplay:10.37,2013-03-04 05:00:00,
2013-03-03 23:02:00,25.6,17.8,29.77,ESE,115,13.0,15.0,72,0.00,OVC,SKC,0.00,WeatherDisplay:10.37,2013-03-04 05:02:00,
2013-03-03 23:07:00,25.4,17.6,29.77,SE,144,14.9,18.4,72,0.00,OVC,SKC,0.00,WeatherDisplay:10.37,2013-03-04 05:07:00,
2013-03-03 23:12:00,25.3,17.9,29.77,SSE,151,14.8,19.6,73,0.00,OVC,SKC,0.00,WeatherDisplay:10.37,2013-03-04 05:12:00,
2013-03-03 23:17:00,25.2,17.8,29.78,SE,140,12.8,16.1,73,0.00,OVC,SKC,0.00,WeatherDisplay:10.37,2013-03-04 05:17:00,
2013-03-03 23:21:00,25.1,17.7,29.78,SSE,149,14.0,21.0,73,0.00,OVC,SKC,0.00,WeatherDisplay:10.37,2013-03-04 05:21:00,
2013-03-03 23:27:00,25.1,18.0,29.78,SSE,153,9.8,13.8,74,0.00,OVC,SKC,0.00,WeatherDisplay:10.37,2013-03-04 05:27:00,
2013-03-03 23:32:00,25.0,17.9,29.78,SSE,157,10.4,12.0,74,0.00,OVC,SKC,0.00,WeatherDisplay:10.37,2013-03-04 05:32:00,
2013-03-03 23:36:00,25.0,17.9,29.78,SSE,154,9.0,16.0,74,0.00,OVC,SKC,0.00,WeatherDisplay:10.37,2013-03-04 05:36:00,
2013-03-03 23:42:00,25.2,18.1,29.78,SSE,150,12.6,16.1,74,0.00,OVC,SKC,0.00,WeatherDisplay:10.37,2013-03-04 05:42:00,
2013-03-03 23:47:00,25.2,18.1,29.78,SE,144,13.0,16.1,74,0.00,OVC,SKC,0.00,WeatherDisplay:10.37,2013-03-04 05:47:00,
2013-03-03 23:52:00,25.1,18.0,29.78,SSE,155,13.6,16.1,74,0.00,OVC,SKC,0.00,WeatherDisplay:10.37,2013-03-04 05:52:00,
2013-03-03 23:57:00,24.9,17.8,29.78,South,169,13.4,16.1,74,0.00,OVC,SKC,0.00,WeatherDisplay:10.37,2013-03-04 05:57:00,